Time;durP1;ratioP1;P1;durP2;ratioP2;P2;SDS_P1;SDS_P2;PMS_P1;PMS_P2;Temp;Humidity;BMP_temperature;BMP_pressure;BME280_temperature;BME280_humidity;BME280_pressure;Samples;Min_cycle;Max_cycle;Signal;HPM_P1;HPM_P2
2023/03/06 00:01:47;;;;;;;13.13;11.70;;;;;;;;;;5036692;28;20206;-69
2023/03/06 00:04:13;;;;;;;15.83;13.47;;;;;;;;;;5054730;28;20169;-68
2023/03/06 00:06:39;;;;;;;14.47;12.47;;;;;;;;;;5036332;28;20187;-69
2023/03/06 00:09:05;;;;;;;13.80;12.33;;;;;;;;;;5054902;28;20206;-68
2023/03/06 00:11:31;;;;;;;18.37;12.80;;;;;;;;;;5054237;28;20213;-69
2023/03/06 00:13:57;;;;;;;16.00;13.07;;;;;;;;;;5054424;28;20174;-68
2023/03/06 00:16:23;;;;;;;16.57;12.90;;;;;;;;;;5054480;28;20171;-68
2023/03/06 00:18:49;;;;;;;14.37;12.47;;;;;;;;;;5054477;28;20553;-69
2023/03/06 00:21:15;;;;;;;17.33;11.97;;;;;;;;;;5036662;28;20213;-70
2023/03/06 00:23:41;;;;;;;15.47;12.67;;;;;;;;;;5036518;28;20178;-68
2023/03/06 00:26:08;;;;;;;12.70;11.37;;;;;;;;;;5037357;28;20217;-68
2023/03/06 00:28:34;;;;;;;14.57;11.80;;;;;;;;;;5054336;28;20202;-69
2023/03/06 00:31:00;;;;;;;15.40;12.43;;;;;;;;;;5036430;28;20178;-68
2023/03/06 00:33:26;;;;;;;20.00;13.17;;;;;;;;;;5054537;28;20240;-68
2023/03/06 00:35:52;;;;;;;15.63;11.67;;;;;;;;;;5063457;22;20645;-72
2023/03/06 00:38:18;;;;;;;13.93;12.53;;;;;;;;;;4996297;28;20211;-69
2023/03/06 00:40:44;;;;;;;19.87;12.47;;;;;;;;;;5014794;28;20566;-68
2023/03/06 00:43:10;;;;;;;18.30;12.73;;;;;;;;;;4996902;28;20215;-70
2023/03/06 00:45:36;;;;;;;13.97;11.93;;;;;;;;;;4996681;28;20271;-68
2023/03/06 00:48:02;;;;;;;13.73;12.33;;;;;;;;;;5014914;28;20207;-68
2023/03/06 00:50:28;;;;;;;14.60;12.40;;;;;;;;;;4996714;28;20274;-70
2023/03/06 00:52:54;;;;;;;13.77;11.97;;;;;;;;;;4996555;28;20203;-68
2023/03/06 00:55:20;;;;;;;15.23;12.27;;;;;;;;;;5014125;28;20303;-68
2023/03/06 00:57:46;;;;;;;14.00;11.93;;;;;;;;;;5014257;28;20179;-68
2023/03/06 01:00:13;;;;;;;13.43;12.10;;;;;;;;;;5014509;28;20176;-68
2023/03/06 01:02:39;;;;;;;13.83;11.87;;;;;;;;;;4996750;28;20184;-68
2023/03/06 01:05:05;;;;;;;14.20;12.57;;;;;;;;;;5014196;28;20567;-68
2023/03/06 01:07:35;;;;;;;16.60;11.73;;;;;;;;;;5014291;28;20266;-67
2023/03/06 01:10:02;;;;;;;16.47;12.73;;;;;;;;;;5014735;28;20259;-68
2023/03/06 01:12:28;;;;;;;13.67;12.17;;;;;;;;;;5014091;28;20283;-68
2023/03/06 01:14:54;;;;;;;12.83;11.50;;;;;;;;;;5014008;28;20625;-67
2023/03/06 01:17:20;;;;;;;14.73;13.23;;;;;;;;;;5014066;28;20587;-68
2023/03/06 01:19:46;;;;;;;16.53;13.00;;;;;;;;;;5015717;28;20186;-68
2023/03/06 01:22:12;;;;;;;16.27;13.67;;;;;;;;;;5000208;28;20180;-68
2023/03/06 01:24:38;;;;;;;16.63;14.30;;;;;;;;;;4999925;28;20257;-68
2023/03/06 01:27:04;;;;;;;21.13;15.90;;;;;;;;;;4999810;28;20199;-68
2023/03/06 01:29:30;;;;;;;19.63;16.93;;;;;;;;;;5017750;28;20176;-70
2023/03/06 01:31:56;;;;;;;21.00;16.73;;;;;;;;;;5016647;28;20207;-68
2023/03/06 01:34:21;;;;;;;21.57;17.97;;;;;;;;;;5017665;28;20530;-68
2023/03/06 01:36:47;;;;;;;25.50;18.47;;;;;;;;;;5017127;28;20704;-67
2023/03/06 01:39:13;;;;;;;22.47;19.00;;;;;;;;;;4999395;28;20672;-68
2023/03/06 01:41:39;;;;;;;23.37;19.23;;;;;;;;;;5016804;28;20698;-68
2023/03/06 01:44:05;;;;;;;29.77;21.77;;;;;;;;;;5017006;28;20646;-68
2023/03/06 01:46:41;;;;;;;28.90;22.57;;;;;;;;;;5016862;28;20662;-70
2023/03/06 01:49:20;;;;;;;28.00;22.97;;;;;;;;;;5017390;28;20245;-68
2023/03/06 01:51:59;;;;;;;30.43;23.17;;;;;;;;;;5005336;28;20242;-70
2023/03/06 01:54:30;;;;;;;28.63;22.63;;;;;;;;;;5030575;28;20230;-69
2023/03/06 01:56:58;;;;;;;33.03;24.13;;;;;;;;;;5021576;28;20263;-68
2023/03/06 01:59:25;;;;;;;28.53;22.27;;;;;;;;;;5020312;28;20226;-68
2023/03/06 02:01:52;;;;;;;30.13;24.60;;;;;;;;;;5018382;28;20610;-68
2023/03/06 02:04:18;;;;;;;28.13;22.70;;;;;;;;;;5017313;28;20183;-70
2023/03/06 02:06:44;;;;;;;31.13;23.50;;;;;;;;;;5017635;28;20579;-68
2023/03/06 02:09:12;;;;;;;32.13;22.83;;;;;;;;;;5024749;28;20184;-67
2023/03/06 02:11:42;;;;;;;36.13;24.10;;;;;;;;;;5016712;28;20685;-70
2023/03/06 02:14:08;;;;;;;28.97;23.83;;;;;;;;;;5017125;28;20161;-70
2023/03/06 02:16:34;;;;;;;28.83;23.70;;;;;;;;;;5016988;28;20270;-70
2023/03/06 02:19:01;;;;;;;29.57;25.03;;;;;;;;;;5016785;28;20180;-68
2023/03/06 02:21:30;;;;;;;34.23;26.53;;;;;;;;;;5017132;28;20226;-67
2023/03/06 02:24:17;;;;;;;34.27;26.90;;;;;;;;;;4998809;28;20553;-70
2023/03/06 02:26:44;;;;;;;31.67;26.30;;;;;;;;;;5016500;28;20215;-69
2023/03/06 02:29:10;;;;;;;33.67;27.37;;;;;;;;;;5017382;28;20219;-68
2023/03/06 02:31:36;;;;;;;33.03;25.23;;;;;;;;;;4998573;28;20454;-68
2023/03/06 02:34:28;;;;;;;32.77;26.67;;;;;;;;;;4999511;28;20187;-68
2023/03/06 02:36:59;;;;;;;31.73;24.77;;;;;;;;;;5008236;28;20211;-69
2023/03/06 02:39:27;;;;;;;27.67;23.10;;;;;;;;;;5027878;28;20415;-69
2023/03/06 02:41:54;;;;;;;26.70;23.00;;;;;;;;;;5010970;28;20230;-69
2023/03/06 02:44:20;;;;;;;25.13;22.43;;;;;;;;;;5016442;28;20188;-70
2023/03/06 02:46:46;;;;;;;26.27;22.20;;;;;;;;;;5018753;28;20202;-68
2023/03/06 02:49:12;;;;;;;22.43;18.67;;;;;;;;;;5016035;28;20183;-68
2023/03/06 02:51:38;;;;;;;20.97;18.40;;;;;;;;;;5016415;28;20196;-68
2023/03/06 02:54:04;;;;;;;22.23;18.90;;;;;;;;;;4998390;28;20184;-70
2023/03/06 02:56:30;;;;;;;21.13;18.83;;;;;;;;;;4997874;28;20290;-68
2023/03/06 02:58:56;;;;;;;20.77;17.97;;;;;;;;;;4998481;28;20329;-68
2023/03/06 03:01:22;;;;;;;21.30;17.80;;;;;;;;;;4998169;28;20187;-68
2023/03/06 03:03:48;;;;;;;18.90;16.57;;;;;;;;;;4998202;28;20189;-68
2023/03/06 03:06:14;;;;;;;19.67;16.83;;;;;;;;;;5015868;28;20286;-69
2023/03/06 03:08:40;;;;;;;19.07;16.67;;;;;;;;;;5015949;28;20176;-69
2023/03/06 03:11:08;;;;;;;19.33;16.37;;;;;;;;;;5015938;28;20191;-70
2023/03/06 03:13:33;;;;;;;22.30;17.50;;;;;;;;;;5015748;28;20212;-69
2023/03/06 03:16:01;;;;;;;20.97;18.57;;;;;;;;;;5015808;28;20199;-68
2023/03/06 03:18:27;;;;;;;23.53;19.23;;;;;;;;;;5015717;28;20250;-68
2023/03/06 03:20:53;;;;;;;23.07;19.60;;;;;;;;;;5015535;28;20180;-68
2023/03/06 03:23:19;;;;;;;25.10;21.03;;;;;;;;;;5015762;28;20191;-67
2023/03/06 03:25:45;;;;;;;24.57;20.77;;;;;;;;;;5015497;28;20208;-69
2023/03/06 03:28:11;;;;;;;26.70;20.53;;;;;;;;;;4998356;28;20274;-69
2023/03/06 03:30:38;;;;;;;30.57;22.53;;;;;;;;;;4998537;28;20269;-69
2023/03/06 03:33:04;;;;;;;31.63;22.03;;;;;;;;;;5015251;28;20195;-69
2023/03/06 03:35:30;;;;;;;31.17;22.47;;;;;;;;;;4997210;28;20219;-69
2023/03/06 03:37:56;;;;;;;30.90;24.97;;;;;;;;;;5016437;28;20188;-69
2023/03/06 03:40:22;;;;;;;29.80;21.63;;;;;;;;;;5015757;28;20207;-69
2023/03/06 03:42:48;;;;;;;32.80;24.87;;;;;;;;;;5015199;28;20175;-69
2023/03/06 03:45:14;;;;;;;32.90;24.97;;;;;;;;;;4997692;28;20208;-69
2023/03/06 03:47:40;;;;;;;35.93;26.40;;;;;;;;;;4997848;28;20211;-69
2023/03/06 03:50:06;;;;;;;31.57;26.53;;;;;;;;;;4997357;28;20188;-69
2023/03/06 03:52:32;;;;;;;32.27;25.57;;;;;;;;;;5015433;28;20195;-69
2023/03/06 03:54:58;;;;;;;34.20;26.47;;;;;;;;;;4998224;28;20210;-69
2023/03/06 03:57:24;;;;;;;35.90;26.37;;;;;;;;;;5015390;28;20637;-69
2023/03/06 03:59:50;;;;;;;35.40;25.50;;;;;;;;;;5014822;28;20630;-70
2023/03/06 04:02:16;;;;;;;34.53;26.53;;;;;;;;;;5014514;28;20180;-69
2023/03/06 04:04:42;;;;;;;33.50;24.93;;;;;;;;;;4997862;28;20187;-70
2023/03/06 04:07:08;;;;;;;32.20;25.83;;;;;;;;;;4997556;28;20179;-70
2023/03/06 04:09:34;;;;;;;35.63;26.00;;;;;;;;;;5015169;28;20279;-69
2023/03/06 04:12:00;;;;;;;32.77;26.13;;;;;;;;;;5014571;28;20195;-69
2023/03/06 04:14:26;;;;;;;34.67;27.67;;;;;;;;;;4996806;28;20572;-69
2023/03/06 04:16:52;;;;;;;35.37;25.90;;;;;;;;;;5014952;28;20295;-70
2023/03/06 04:19:18;;;;;;;31.70;25.93;;;;;;;;;;5014679;28;20207;-69
2023/03/06 04:21:44;;;;;;;34.57;25.87;;;;;;;;;;4997241;28;20565;-69
2023/03/06 04:24:10;;;;;;;35.17;26.30;;;;;;;;;;5015086;28;20206;-69
2023/03/06 04:26:36;;;;;;;34.10;25.57;;;;;;;;;;4997537;28;20329;-69
2023/03/06 04:29:02;;;;;;;32.00;25.63;;;;;;;;;;5016705;28;20215;-69
2023/03/06 04:31:28;;;;;;;36.63;26.07;;;;;;;;;;5014793;28;20176;-69
2023/03/06 04:33:54;;;;;;;35.90;26.67;;;;;;;;;;5014947;28;20249;-69
2023/03/06 04:36:27;;;;;;;33.97;26.73;;;;;;;;;;5014660;28;20212;-69
2023/03/06 04:38:53;;;;;;;33.20;25.23;;;;;;;;;;5015880;28;20175;-69
2023/03/06 04:41:19;;;;;;;34.03;25.57;;;;;;;;;;5015087;28;20551;-69
2023/03/06 04:43:45;;;;;;;33.93;26.37;;;;;;;;;;4996861;28;20218;-69
2023/03/06 04:46:11;;;;;;;32.57;25.37;;;;;;;;;;4997068;28;20199;-69
2023/03/06 04:48:37;;;;;;;30.80;24.90;;;;;;;;;;5014517;28;20652;-68
2023/03/06 04:51:03;;;;;;;32.93;24.13;;;;;;;;;;5014610;28;20203;-69
2023/03/06 04:53:29;;;;;;;29.40;24.20;;;;;;;;;;5014097;28;20215;-69
2023/03/06 04:55:55;;;;;;;32.70;25.70;;;;;;;;;;5018322;28;20306;-68
2023/03/06 04:58:21;;;;;;;35.27;24.87;;;;;;;;;;5018591;28;20179;-69
2023/03/06 05:00:47;;;;;;;34.30;25.00;;;;;;;;;;5018336;28;20183;-69
2023/03/06 05:03:13;;;;;;;38.03;26.33;;;;;;;;;;5018225;28;20259;-70
2023/03/06 05:05:40;;;;;;;37.03;26.03;;;;;;;;;;5018407;28;20204;-67
2023/03/06 05:08:06;;;;;;;31.80;25.03;;;;;;;;;;5018189;28;20187;-68
2023/03/06 05:10:32;;;;;;;33.93;25.57;;;;;;;;;;5000127;28;20214;-69
2023/03/06 05:12:58;;;;;;;32.90;25.97;;;;;;;;;;5018276;28;20575;-69
2023/03/06 05:15:24;;;;;;;33.83;26.33;;;;;;;;;;5000160;28;20199;-69
2023/03/06 05:17:50;;;;;;;35.47;25.13;;;;;;;;;;5018224;28;20176;-69
2023/03/06 05:20:16;;;;;;;31.83;25.33;;;;;;;;;;5017676;28;20251;-70
2023/03/06 05:22:43;;;;;;;33.60;25.40;;;;;;;;;;5017793;28;20642;-69
2023/03/06 05:25:09;;;;;;;35.17;26.00;;;;;;;;;;5018007;28;20284;-68
2023/03/06 05:27:35;;;;;;;30.30;23.67;;;;;;;;;;5017705;28;20176;-69
2023/03/06 05:30:02;;;;;;;31.13;24.63;;;;;;;;;;5017809;28;20176;-69
2023/03/06 05:32:28;;;;;;;27.90;23.03;;;;;;;;;;5008690;28;20459;-70
2023/03/06 05:34:54;;;;;;;28.67;23.23;;;;;;;;;;5033428;28;20178;-71
2023/03/06 05:37:21;;;;;;;32.17;23.10;;;;;;;;;;5033990;28;20203;-70
2023/03/06 05:39:47;;;;;;;27.83;21.53;;;;;;;;;;5027984;28;20422;-69
2023/03/06 05:42:13;;;;;;;27.93;21.53;;;;;;;;;;5001216;28;20917;-68
2023/03/06 05:44:40;;;;;;;26.83;20.97;;;;;;;;;;5000604;28;20225;-68
2023/03/06 05:47:07;;;;;;;27.77;21.97;;;;;;;;;;5017982;28;20686;-68
2023/03/06 05:49:33;;;;;;;29.03;22.50;;;;;;;;;;5017727;28;20778;-68
2023/03/06 05:52:02;;;;;;;30.97;22.23;;;;;;;;;;5017606;28;20753;-68
2023/03/06 05:54:28;;;;;;;31.67;22.53;;;;;;;;;;5018069;28;20168;-68
2023/03/06 05:56:56;;;;;;;34.77;23.20;;;;;;;;;;4999862;28;20202;-68
2023/03/06 05:59:22;;;;;;;36.87;23.80;;;;;;;;;;4999683;28;20180;-68
2023/03/06 06:01:48;;;;;;;32.40;23.10;;;;;;;;;;5017606;28;20645;-68
2023/03/06 06:04:15;;;;;;;32.97;23.93;;;;;;;;;;5017602;28;20184;-68
2023/03/06 06:06:40;;;;;;;31.63;23.50;;;;;;;;;;5017223;28;20702;-68
2023/03/06 06:09:06;;;;;;;33.13;23.80;;;;;;;;;;5017594;28;20418;-68
2023/03/06 06:11:32;;;;;;;32.43;22.93;;;;;;;;;;4999870;28;20184;-68
2023/03/06 06:13:58;;;;;;;31.33;22.60;;;;;;;;;;5000205;28;20655;-68
2023/03/06 06:16:24;;;;;;;35.00;24.17;;;;;;;;;;5017129;28;20226;-68
2023/03/06 06:18:50;;;;;;;33.03;22.53;;;;;;;;;;5017531;28;20187;-68
2023/03/06 06:21:16;;;;;;;31.73;22.87;;;;;;;;;;5016905;28;20175;-68
2023/03/06 06:23:42;;;;;;;34.37;23.33;;;;;;;;;;4999165;28;20271;-68
2023/03/06 06:26:09;;;;;;;31.13;22.53;;;;;;;;;;5016526;28;20231;-68
2023/03/06 06:28:36;;;;;;;31.43;24.40;;;;;;;;;;4999382;28;20189;-68
2023/03/06 06:31:07;;;;;;;32.57;23.10;;;;;;;;;;5016503;28;20588;-68
2023/03/06 06:33:32;;;;;;;32.10;23.53;;;;;;;;;;5017551;28;20569;-68
2023/03/06 06:35:58;;;;;;;33.67;23.97;;;;;;;;;;5016746;28;20211;-68
2023/03/06 06:38:24;;;;;;;36.33;25.07;;;;;;;;;;5017231;28;20258;-68
2023/03/06 06:40:50;;;;;;;34.03;24.00;;;;;;;;;;5016801;28;20187;-68
2023/03/06 06:43:16;;;;;;;35.87;24.90;;;;;;;;;;5016700;28;20266;-69
2023/03/06 06:45:43;;;;;;;38.80;26.57;;;;;;;;;;5016450;28;20208;-68
2023/03/06 06:48:09;;;;;;;42.53;28.90;;;;;;;;;;4998550;28;20184;-68
2023/03/06 06:50:35;;;;;;;40.83;27.77;;;;;;;;;;5015962;28;20255;-68
2023/03/06 06:53:01;;;;;;;41.67;28.20;;;;;;;;;;5051038;23;20249;-66
2023/03/06 06:55:27;;;;;;;45.70;29.83;;;;;;;;;;5037008;28;20230;-68
2023/03/06 06:57:53;;;;;;;46.53;28.63;;;;;;;;;;5037242;28;20176;-67
2023/03/06 07:00:19;;;;;;;47.23;29.33;;;;;;;;;;5038778;28;20190;-68
2023/03/06 07:02:48;;;;;;;46.43;28.17;;;;;;;;;;5018953;28;20608;-69
2023/03/06 07:05:14;;;;;;;42.97;27.93;;;;;;;;;;5018037;28;20218;-68
2023/03/06 07:07:40;;;;;;;41.10;26.77;;;;;;;;;;5018256;28;20179;-70
2023/03/06 07:10:11;;;;;;;36.73;26.60;;;;;;;;;;5035544;28;20191;-67
2023/03/06 07:12:37;;;;;;;38.37;25.70;;;;;;;;;;5035280;28;20613;-68
2023/03/06 07:15:04;;;;;;;36.43;24.10;;;;;;;;;;5017946;28;20205;-68
2023/03/06 07:17:30;;;;;;;39.17;24.63;;;;;;;;;;5035710;28;20178;-67
2023/03/06 07:19:56;;;;;;;34.87;24.00;;;;;;;;;;5035639;28;20210;-68
2023/03/06 07:22:22;;;;;;;36.53;24.03;;;;;;;;;;5035101;28;20195;-67
2023/03/06 07:24:48;;;;;;;37.10;24.53;;;;;;;;;;5017413;28;20716;-68
2023/03/06 07:27:14;;;;;;;35.63;23.47;;;;;;;;;;5035034;28;20557;-68
2023/03/06 07:29:42;;;;;;;38.10;24.20;;;;;;;;;;5035243;28;20182;-67
2023/03/06 07:32:08;;;;;;;33.93;23.30;;;;;;;;;;5017206;28;20223;-67
2023/03/06 07:34:34;;;;;;;40.53;24.90;;;;;;;;;;5035520;28;20194;-67
2023/03/06 07:37:00;;;;;;;35.33;23.83;;;;;;;;;;5035098;28;20175;-69
2023/03/06 07:39:27;;;;;;;34.83;25.53;;;;;;;;;;5017244;28;20668;-67
2023/03/06 07:41:52;;;;;;;33.30;22.67;;;;;;;;;;5016829;28;20186;-68
2023/03/06 07:44:19;;;;;;;38.50;23.07;;;;;;;;;;5034677;28;20193;-68
2023/03/06 07:46:45;;;;;;;33.63;22.70;;;;;;;;;;5034545;28;20185;-67
2023/03/06 07:49:11;;;;;;;34.27;23.07;;;;;;;;;;5035002;28;20262;-67
2023/03/06 07:51:37;;;;;;;34.43;24.50;;;;;;;;;;5034919;28;20222;-65
2023/03/06 07:54:03;;;;;;;34.00;24.17;;;;;;;;;;5017344;28;20567;-68
2023/03/06 07:56:29;;;;;;;31.07;22.43;;;;;;;;;;5035388;28;20664;-67
2023/03/06 07:58:55;;;;;;;32.47;21.03;;;;;;;;;;5034899;28;20306;-67
2023/03/06 08:01:24;;;;;;;33.93;22.20;;;;;;;;;;5035133;28;20241;-68
2023/03/06 08:03:50;;;;;;;34.73;24.70;;;;;;;;;;5034751;28;20210;-68
2023/03/06 08:06:16;;;;;;;35.33;24.77;;;;;;;;;;5035216;28;20180;-68
2023/03/06 08:08:44;;;;;;;31.23;23.20;;;;;;;;;;5034775;28;20206;-68
2023/03/06 08:11:11;;;;;;;30.80;22.60;;;;;;;;;;5040759;28;20222;-69
2023/03/06 08:13:37;;;;;;;38.87;26.83;;;;;;;;;;5037462;28;20215;-69
2023/03/06 08:16:04;;;;;;;36.67;26.53;;;;;;;;;;5034643;28;20637;-68
2023/03/06 08:18:30;;;;;;;42.80;30.53;;;;;;;;;;5034228;28;20175;-68
2023/03/06 08:21:06;;;;;;;40.40;28.93;;;;;;;;;;5034399;28;20629;-68
2023/03/06 08:23:32;;;;;;;48.47;34.60;;;;;;;;;;5016757;28;20791;-69
2023/03/06 08:25:59;;;;;;;39.37;27.03;;;;;;;;;;5034854;28;20217;-68
2023/03/06 08:28:25;;;;;;;41.00;27.50;;;;;;;;;;5034534;28;20183;-67
2023/03/06 08:30:51;;;;;;;44.90;31.23;;;;;;;;;;5020806;28;20183;-68
2023/03/06 08:33:17;;;;;;;44.87;30.80;;;;;;;;;;5038521;28;20211;-68
2023/03/06 08:35:43;;;;;;;43.97;32.30;;;;;;;;;;5038429;28;20211;-69
2023/03/06 08:38:09;;;;;;;45.73;31.40;;;;;;;;;;5038839;28;20186;-68
2023/03/06 08:40:35;;;;;;;47.40;33.03;;;;;;;;;;5020659;28;20179;-69
2023/03/06 08:43:01;;;;;;;47.47;31.50;;;;;;;;;;5038673;28;20199;-68
2023/03/06 08:45:27;;;;;;;52.10;36.47;;;;;;;;;;5038544;28;20261;-69
2023/03/06 08:47:53;;;;;;;46.17;33.43;;;;;;;;;;5021085;28;20557;-69
2023/03/06 08:50:19;;;;;;;48.83;32.30;;;;;;;;;;5020448;28;20187;-68
2023/03/06 08:52:45;;;;;;;53.50;34.73;;;;;;;;;;5020052;28;20222;-69
2023/03/06 08:55:11;;;;;;;52.23;35.33;;;;;;;;;;5038336;28;20600;-69
2023/03/06 08:57:37;;;;;;;51.67;34.27;;;;;;;;;;5038369;28;20183;-68
2023/03/06 09:00:07;;;;;;;52.20;34.73;;;;;;;;;;5038536;28;20171;-68
2023/03/06 09:02:33;;;;;;;55.53;37.73;;;;;;;;;;5038436;28;20205;-69
2023/03/06 09:05:00;;;;;;;52.73;32.47;;;;;;;;;;5038104;28;20649;-68
2023/03/06 09:07:26;;;;;;;53.67;35.03;;;;;;;;;;5038368;28;20270;-68
2023/03/06 09:09:55;;;;;;;60.90;39.50;;;;;;;;;;5020161;28;20664;-68
2023/03/06 09:12:21;;;;;;;51.73;33.20;;;;;;;;;;5037566;28;20581;-69
2023/03/06 09:14:47;;;;;;;48.87;31.50;;;;;;;;;;5037992;28;20235;-68
2023/03/06 09:17:13;;;;;;;49.77;32.43;;;;;;;;;;5038028;28;20680;-69
2023/03/06 09:19:39;;;;;;;43.87;32.60;;;;;;;;;;5038108;28;20179;-68
2023/03/06 09:22:05;;;;;;;49.27;33.53;;;;;;;;;;5037383;28;20575;-68
2023/03/06 09:24:31;;;;;;;47.33;32.27;;;;;;;;;;5038109;28;20179;-68
2023/03/06 09:26:57;;;;;;;47.60;31.30;;;;;;;;;;5037401;28;20228;-71
2023/03/06 09:29:23;;;;;;;44.13;33.53;;;;;;;;;;5037385;28;20224;-68
2023/03/06 09:31:49;;;;;;;42.97;29.23;;;;;;;;;;5037507;28;20206;-67
2023/03/06 09:34:15;;;;;;;44.90;30.77;;;;;;;;;;5037472;28;20186;-69
2023/03/06 09:36:41;;;;;;;44.87;30.70;;;;;;;;;;5019757;28;20206;-69
2023/03/06 09:39:08;;;;;;;41.87;27.57;;;;;;;;;;5037875;28;20182;-69
2023/03/06 09:41:35;;;;;;;39.70;29.37;;;;;;;;;;5037111;28;20182;-68
2023/03/06 09:44:07;;;;;;;37.53;27.10;;;;;;;;;;5036812;28;20233;-68
2023/03/06 09:46:50;;;;;;;37.33;27.10;;;;;;;;;;5037313;28;20174;-69
2023/03/06 09:49:37;;;;;;;36.30;26.47;;;;;;;;;;5037695;28;20168;-69
2023/03/06 09:52:02;;;;;;;34.73;23.00;;;;;;;;;;5036878;28;20297;-68
2023/03/06 09:54:47;;;;;;;35.70;24.00;;;;;;;;;;5019621;28;20172;-68
2023/03/06 09:57:20;;;;;;;31.27;22.93;;;;;;;;;;5037123;28;20175;-68
2023/03/06 09:59:47;;;;;;;33.90;23.97;;;;;;;;;;5037569;28;20238;-69
2023/03/06 10:02:15;;;;;;;33.93;24.93;;;;;;;;;;5036923;28;20207;-68
2023/03/06 10:04:42;;;;;;;32.73;21.13;;;;;;;;;;5019102;28;20710;-69
2023/03/06 10:07:12;;;;;;;33.40;24.80;;;;;;;;;;5037281;28;20680;-68
2023/03/06 10:09:38;;;;;;;32.43;22.70;;;;;;;;;;5037234;28;20242;-67
2023/03/06 10:12:12;;;;;;;28.17;20.60;;;;;;;;;;5036770;28;20302;-69
2023/03/06 10:14:41;;;;;;;30.43;21.37;;;;;;;;;;5019508;28;20172;-68
2023/03/06 10:17:10;;;;;;;30.73;21.10;;;;;;;;;;5037352;28;20179;-67
2023/03/06 10:19:40;;;;;;;29.73;21.30;;;;;;;;;;5019477;28;20596;-68
2023/03/06 10:22:11;;;;;;;25.50;18.80;;;;;;;;;;5021011;28;20675;-67
2023/03/06 10:24:56;;;;;;;24.53;18.43;;;;;;;;;;5037935;28;20250;-67
2023/03/06 10:27:41;;;;;;;25.03;18.00;;;;;;;;;;5019106;28;20190;-66
2023/03/06 10:30:10;;;;;;;24.90;18.10;;;;;;;;;;5036992;28;20262;-67
2023/03/06 10:32:45;;;;;;;22.67;18.23;;;;;;;;;;5036588;28;20348;-67
2023/03/06 10:35:15;;;;;;;27.37;19.30;;;;;;;;;;5037172;28;20179;-66
2023/03/06 10:37:41;;;;;;;24.20;17.83;;;;;;;;;;5019000;28;20270;-68
2023/03/06 10:40:16;;;;;;;29.87;21.10;;;;;;;;;;5036500;28;20233;-67
2023/03/06 10:42:42;;;;;;;28.67;20.00;;;;;;;;;;5036187;28;20199;-69
2023/03/06 10:45:09;;;;;;;23.93;17.90;;;;;;;;;;5036152;28;20657;-67
2023/03/06 10:47:36;;;;;;;29.27;19.27;;;;;;;;;;5037291;28;20179;-67
2023/03/06 10:50:03;;;;;;;21.93;17.20;;;;;;;;;;5036017;28;20175;-67
2023/03/06 10:52:34;;;;;;;22.13;16.03;;;;;;;;;;5034698;28;20314;-68
2023/03/06 10:55:22;;;;;;;23.43;18.07;;;;;;;;;;5035816;28;20185;-68
2023/03/06 10:57:48;;;;;;;22.47;16.53;;;;;;;;;;5018065;28;20278;-67
2023/03/06 11:00:25;;;;;;;19.13;15.00;;;;;;;;;;5035617;28;20171;-68
2023/03/06 11:03:05;;;;;;;19.37;13.43;;;;;;;;;;5035806;28;20260;-69
2023/03/06 11:05:31;;;;;;;16.87;13.50;;;;;;;;;;5017018;28;20641;-69
2023/03/06 11:07:59;;;;;;;17.10;13.03;;;;;;;;;;5034360;28;20225;-69
2023/03/06 11:10:25;;;;;;;17.10;12.70;;;;;;;;;;5034824;28;20676;-69
2023/03/06 11:13:03;;;;;;;15.37;12.40;;;;;;;;;;5034146;28;20680;-68
2023/03/06 11:15:30;;;;;;;14.53;10.13;;;;;;;;;;5034417;28;20183;-70
2023/03/06 11:18:03;;;;;;;12.73;10.30;;;;;;;;;;5035021;28;20202;-68
2023/03/06 11:20:31;;;;;;;11.07;8.50;;;;;;;;;;5035719;28;20155;-66
2023/03/06 11:23:06;;;;;;;10.93;8.50;;;;;;;;;;5017895;28;20207;-66
2023/03/06 11:25:47;;;;;;;14.67;10.07;;;;;;;;;;5017925;28;20250;-68
2023/03/06 11:28:16;;;;;;;13.00;10.13;;;;;;;;;;5035382;28;20258;-69
2023/03/06 11:30:43;;;;;;;12.53;10.17;;;;;;;;;;5034754;28;20267;-68
2023/03/06 11:33:14;;;;;;;14.17;11.10;;;;;;;;;;5016606;28;20760;-65
2023/03/06 11:35:46;;;;;;;13.13;9.03;;;;;;;;;;5035020;28;20294;-65
2023/03/06 11:38:25;;;;;;;12.87;10.13;;;;;;;;;;5035262;28;20614;-65
2023/03/06 11:40:59;;;;;;;11.60;9.60;;;;;;;;;;5016727;28;20186;-66
2023/03/06 11:43:25;;;;;;;14.23;8.63;;;;;;;;;;5035001;28;20210;-64
2023/03/06 11:45:51;;;;;;;11.53;9.17;;;;;;;;;;5034941;28;20171;-66
2023/03/06 11:48:21;;;;;;;12.20;8.37;;;;;;;;;;5035795;28;20186;-68
2023/03/06 11:50:51;;;;;;;10.53;8.13;;;;;;;;;;5017708;28;20187;-66
2023/03/06 11:53:31;;;;;;;9.33;7.70;;;;;;;;;;5034388;28;20277;-67
2023/03/06 11:55:57;;;;;;;10.80;7.00;;;;;;;;;;5016722;28;20170;-69
2023/03/06 11:58:36;;;;;;;10.30;7.37;;;;;;;;;;5033826;28;20190;-66
2023/03/06 12:01:02;;;;;;;10.03;7.17;;;;;;;;;;5015875;28;20261;-67
2023/03/06 12:03:47;;;;;;;9.23;7.43;;;;;;;;;;5034168;28;20214;-66
2023/03/06 12:06:32;;;;;;;8.17;7.33;;;;;;;;;;5017033;28;20560;-66
2023/03/06 12:09:00;;;;;;;9.53;7.57;;;;;;;;;;5016552;28;20232;-66
2023/03/06 12:11:52;;;;;;;7.77;6.93;;;;;;;;;;5016506;28;20191;-64
2023/03/06 12:14:21;;;;;;;7.73;5.90;;;;;;;;;;4994695;28;20650;-67
2023/03/06 12:16:50;;;;;;;8.10;6.60;;;;;;;;;;5034403;28;20695;-64
2023/03/06 12:19:36;;;;;;;9.50;6.87;;;;;;;;;;5016761;28;20183;-70
2023/03/06 12:22:21;;;;;;;7.20;6.37;;;;;;;;;;5036163;28;20210;-67
2023/03/06 12:24:53;;;;;;;6.83;6.13;;;;;;;;;;5036773;28;20203;-66
2023/03/06 12:27:37;;;;;;;7.83;6.63;;;;;;;;;;5036604;28;20182;-68
2023/03/06 12:30:15;;;;;;;6.30;5.70;;;;;;;;;;5034006;28;20260;-69
2023/03/06 12:32:53;;;;;;;8.10;6.13;;;;;;;;;;5035682;28;20233;-68
2023/03/06 12:35:22;;;;;;;10.27;5.60;;;;;;;;;;5034603;28;20313;-68
2023/03/06 12:38:03;;;;;;;6.87;5.47;;;;;;;;;;5033270;28;20229;-68
2023/03/06 12:40:37;;;;;;;6.03;5.03;;;;;;;;;;5033532;28;20167;-69
2023/03/06 12:43:03;;;;;;;7.13;5.70;;;;;;;;;;5033449;28;20209;-69
2023/03/06 12:45:33;;;;;;;7.43;5.83;;;;;;;;;;5015340;28;20228;-68
2023/03/06 12:47:59;;;;;;;7.80;6.20;;;;;;;;;;5032806;28;20183;-68
2023/03/06 12:50:27;;;;;;;6.50;5.60;;;;;;;;;;5032990;28;20258;-68
2023/03/06 12:52:54;;;;;;;8.13;5.67;;;;;;;;;;5032650;28;20282;-69
2023/03/06 12:55:20;;;;;;;7.93;7.00;;;;;;;;;;5032771;28;20230;-66
2023/03/06 12:57:47;;;;;;;5.23;4.73;;;;;;;;;;5032763;28;20195;-68
2023/03/06 13:00:32;;;;;;;8.40;5.83;;;;;;;;;;5015062;28;20179;-69
2023/03/06 13:03:17;;;;;;;6.77;6.07;;;;;;;;;;5032972;28;20218;-65
2023/03/06 13:05:46;;;;;;;6.27;5.43;;;;;;;;;;5015136;28;20224;-66
2023/03/06 13:08:12;;;;;;;7.83;6.10;;;;;;;;;;5032821;28;20183;-65
2023/03/06 13:10:39;;;;;;;7.77;5.90;;;;;;;;;;5014856;28;20187;-66
2023/03/06 13:13:08;;;;;;;9.07;5.90;;;;;;;;;;5032541;28;20271;-69
2023/03/06 13:15:41;;;;;;;10.90;6.30;;;;;;;;;;5034383;28;20250;-68
2023/03/06 13:18:34;;;;;;;8.63;6.80;;;;;;;;;;5018656;28;20241;-68
2023/03/06 13:21:00;;;;;;;6.97;5.93;;;;;;;;;;5006393;28;20310;-68
2023/03/06 13:23:32;;;;;;;7.50;5.43;;;;;;;;;;5018583;28;20199;-68
2023/03/06 13:25:59;;;;;;;6.73;5.77;;;;;;;;;;5018374;28;20179;-68
2023/03/06 13:28:41;;;;;;;11.33;5.83;;;;;;;;;;5018794;28;20187;-68
2023/03/06 13:31:07;;;;;;;6.47;5.60;;;;;;;;;;5018857;28;20178;-68
2023/03/06 13:33:33;;;;;;;6.40;5.67;;;;;;;;;;5036401;28;20221;-70
2023/03/06 13:36:18;;;;;;;7.87;5.30;;;;;;;;;;5036362;28;20209;-68
2023/03/06 13:38:44;;;;;;;6.07;5.30;;;;;;;;;;5036479;28;20242;-69
2023/03/06 13:41:20;;;;;;;5.20;4.70;;;;;;;;;;5036286;28;20216;-70
2023/03/06 13:43:46;;;;;;;5.37;4.50;;;;;;;;;;5036292;28;20253;-69
2023/03/06 13:46:24;;;;;;;5.00;4.17;;;;;;;;;;5036177;28;20578;-69
2023/03/06 13:49:03;;;;;;;4.23;3.80;;;;;;;;;;5036488;28;20177;-68
2023/03/06 13:51:31;;;;;;;10.80;8.07;;;;;;;;;;5018165;28;20209;-69
2023/03/06 13:54:00;;;;;;;9.20;6.60;;;;;;;;;;5018061;28;20222;-67
2023/03/06 13:56:26;;;;;;;6.87;4.37;;;;;;;;;;5035796;28;20554;-68
2023/03/06 13:59:11;;;;;;;5.27;4.33;;;;;;;;;;5035664;28;20175;-68
2023/03/06 14:01:52;;;;;;;13.57;9.70;;;;;;;;;;5034351;28;20927;-68
2023/03/06 14:04:37;;;;;;;9.98;7.47;;;;;;;;;;5034761;28;20375;-68
2023/03/06 14:07:06;;;;;;;10.10;8.07;;;;;;;;;;5035508;28;20568;-68
2023/03/06 14:09:34;;;;;;;10.50;7.80;;;;;;;;;;5035514;28;20171;-68
2023/03/06 14:12:05;;;;;;;12.43;9.07;;;;;;;;;;5035500;28;20213;-67
2023/03/06 14:14:34;;;;;;;13.93;10.23;;;;;;;;;;5057833;23;20183;-68
2023/03/06 14:17:01;;;;;;;23.83;13.00;;;;;;;;;;4995707;28;20202;-70
2023/03/06 14:19:30;;;;;;;19.77;14.73;;;;;;;;;;4978398;28;20227;-70
2023/03/06 14:21:57;;;;;;;17.00;15.00;;;;;;;;;;4995875;28;20172;-70
2023/03/06 14:24:43;;;;;;;18.23;15.43;;;;;;;;;;4978140;28;20276;-71
2023/03/06 14:27:16;;;;;;;18.27;15.40;;;;;;;;;;4978459;28;20199;-70
2023/03/06 14:29:43;;;;;;;20.93;16.37;;;;;;;;;;4978308;28;20631;-70